createdAt,value
2018-10-06T03:03:52.710Z,0.00
2018-10-06T03:04:47.621Z,0.00
2018-10-06T03:05:48.044Z,0.00
2018-10-06T03:06:48.261Z,0.00
2018-10-06T03:07:49.079Z,0.00
2018-10-06T03:08:51.334Z,0.00
2018-10-06T03:09:50.560Z,0.00
2018-10-06T03:10:48.922Z,0.00
2018-10-06T03:11:51.471Z,0.00
2018-10-06T03:12:53.516Z,0.00
2018-10-06T03:13:49.003Z,0.00
2018-10-06T03:14:48.702Z,0.00
2018-10-06T03:15:49.106Z,0.00
2018-10-06T03:16:47.953Z,0.00
2018-10-06T03:17:48.220Z,0.00
2018-10-06T03:18:48.076Z,0.00
2018-10-06T03:19:47.906Z,0.00
2018-10-06T03:20:47.892Z,0.00
2018-10-06T03:21:49.392Z,0.00
2018-10-06T03:22:48.681Z,0.00
2018-10-06T03:23:49.583Z,0.00
2018-10-06T03:24:48.668Z,0.00
2018-10-06T03:25:49.178Z,0.00
2018-10-06T03:26:49.425Z,0.00
2018-10-06T03:27:49.785Z,0.00
2018-10-06T03:28:49.052Z,0.00
2018-10-06T03:30:49.825Z,0.00
2018-10-06T03:31:50.635Z,0.00
2018-10-06T03:32:50.948Z,0.00
2018-10-06T03:33:51.482Z,0.00
2018-10-06T03:34:50.383Z,0.00
2018-10-06T03:35:50.556Z,0.00
2018-10-06T03:36:51.033Z,0.00
2018-10-06T03:37:51.057Z,0.00
2018-10-06T03:38:51.652Z,0.00
2018-10-06T03:39:52.046Z,0.00
2018-10-06T03:40:51.256Z,0.00
2018-10-06T03:41:51.884Z,0.00
2018-10-06T03:42:51.984Z,0.00
2018-10-06T03:43:52.216Z,0.00
2018-10-06T03:44:53.026Z,0.00
2018-10-06T03:45:53.531Z,0.00
2018-10-06T03:46:52.323Z,0.00
2018-10-06T03:47:52.851Z,0.00
2018-10-06T03:48:52.607Z,0.00
2018-10-06T03:49:53.183Z,0.00
2018-10-06T03:50:53.495Z,0.00
2018-10-06T03:51:53.719Z,0.00
2018-10-06T03:52:53.455Z,0.00
2018-10-06T03:54:54.823Z,0.00
2018-10-06T03:55:54.431Z,0.00
2018-10-06T03:56:55.086Z,0.00
2018-10-06T03:57:54.533Z,0.00
2018-10-06T03:59:56.231Z,0.00
2018-10-06T04:01:03.465Z,0.00
2018-10-06T04:01:56.201Z,0.00
2018-10-06T04:02:56.237Z,0.00
2018-10-06T04:03:55.549Z,0.00
2018-10-06T04:04:55.681Z,0.00
2018-10-06T04:05:57.999Z,0.00
2018-10-06T04:06:57.040Z,0.00
2018-10-06T04:07:56.694Z,0.00
2018-10-06T04:08:58.262Z,0.00
2018-10-06T04:09:57.701Z,0.00
2018-10-06T04:10:57.191Z,0.00
2018-10-06T04:11:57.085Z,0.00
2018-10-06T04:12:59.254Z,0.00
2018-10-06T04:13:58.145Z,0.00
2018-10-06T04:14:58.652Z,0.00
2018-10-06T04:15:59.140Z,0.00
2018-10-06T04:16:59.015Z,0.00
2018-10-06T04:19:46.321Z,0.00
2018-10-06T04:20:47.125Z,0.00
2018-10-06T04:21:49.666Z,0.00
2018-10-06T04:22:45.943Z,0.00
2018-10-06T04:23:49.654Z,0.00
2018-10-06T04:24:54.915Z,0.00
2018-10-06T04:25:50.639Z,0.00
2018-10-06T04:26:57.249Z,0.00
2018-10-06T04:27:49.117Z,0.00
2018-10-06T04:28:56.831Z,0.00
2018-10-06T04:29:49.714Z,0.00
2018-10-06T04:31:03.189Z,0.00
2018-10-06T04:31:51.186Z,0.00
2018-10-06T04:32:48.339Z,0.00
2018-10-06T04:33:47.315Z,0.00
2018-10-06T04:34:46.678Z,0.00
2018-10-06T04:35:46.232Z,0.00
2018-10-06T04:36:48.265Z,0.00
2018-10-06T04:37:47.154Z,0.00
2018-10-06T04:38:46.499Z,0.00
2018-10-06T04:39:49.481Z,0.00
2018-10-06T04:40:46.461Z,0.00
2018-10-06T04:41:47.031Z,0.00
2018-10-06T04:42:49.009Z,0.00
2018-10-06T04:43:47.538Z,0.00
2018-10-06T04:44:50.300Z,0.00
2018-10-06T04:45:47.664Z,0.00
2018-10-06T04:46:50.427Z,0.00
2018-10-06T04:47:48.329Z,0.00
2018-10-06T04:48:50.704Z,0.00
2018-10-06T04:49:49.324Z,0.00
2018-10-06T04:50:51.044Z,0.00
2018-10-06T04:51:50.217Z,0.00
2018-10-06T04:52:49.557Z,0.00
2018-10-06T04:53:51.215Z,0.00
2018-10-06T04:54:50.624Z,0.00
2018-10-06T04:55:54.880Z,0.00
2018-10-06T04:56:56.989Z,0.00
2018-10-06T04:57:49.957Z,0.00
2018-10-06T04:58:51.926Z,0.00
2018-10-06T04:59:51.170Z,4.00
2018-10-06T05:00:51.553Z,4.00
2018-10-06T05:01:51.884Z,4.00
2018-10-06T05:02:51.276Z,4.00
2018-10-06T05:03:51.626Z,4.00
2018-10-06T05:04:53.285Z,8.00
2018-10-06T05:05:52.039Z,4.00
2018-10-06T05:07:02.367Z,8.00
2018-10-06T05:07:52.345Z,8.00
2018-10-06T05:08:52.363Z,12.00
2018-10-06T05:09:55.324Z,12.00
2018-10-06T05:10:52.901Z,16.00
2018-10-06T05:11:53.084Z,16.00
2018-10-06T05:12:53.090Z,20.00
2018-10-06T05:13:54.319Z,24.00
2018-10-06T05:14:53.706Z,28.00
2018-10-06T05:15:53.576Z,32.00
2018-10-06T05:16:55.589Z,40.00
2018-10-06T05:17:55.987Z,48.00
2018-10-06T05:18:54.278Z,56.00
2018-10-06T05:19:54.360Z,60.00
2018-10-06T05:20:54.419Z,72.00
2018-10-06T05:21:54.623Z,76.00
2018-10-06T05:22:55.047Z,84.00
2018-10-06T05:23:54.318Z,96.00
2018-10-06T05:24:54.406Z,108.00
2018-10-06T05:25:54.843Z,120.00
2018-10-06T05:26:56.074Z,132.00
2018-10-06T05:27:55.043Z,148.00
2018-10-06T05:28:55.053Z,160.00
2018-10-06T05:29:54.890Z,176.00
2018-10-06T05:30:55.554Z,192.00
2018-10-06T05:31:55.870Z,208.00
2018-10-06T05:32:55.315Z,220.00
2018-10-06T05:34:00.251Z,244.00
2018-10-06T05:35:56.167Z,292.00
2018-10-06T05:36:57.411Z,320.00
2018-10-06T05:37:57.311Z,352.00
2018-10-06T05:38:57.175Z,384.00
2018-10-06T05:39:58.689Z,420.00
2018-10-06T05:40:56.766Z,452.00
2018-10-06T05:41:58.803Z,492.00
2018-10-06T05:42:57.623Z,528.00
2018-10-06T05:43:58.005Z,568.00
2018-10-06T05:44:57.648Z,608.00
2018-10-06T05:45:59.078Z,648.00
2018-10-06T05:46:58.124Z,688.00
2018-10-06T05:47:57.742Z,732.00
2018-10-06T05:48:58.089Z,780.00
2018-10-06T05:49:58.520Z,828.00
2018-10-06T05:50:58.353Z,876.00
2018-10-06T05:51:59.264Z,932.00
2018-10-06T05:52:58.755Z,988.00
2018-10-06T05:53:58.940Z,1040.00
2018-10-06T05:54:59.267Z,1104.00
2018-10-06T05:55:59.245Z,1164.00
2018-10-06T05:57:00.685Z,1224.00
2018-10-06T05:58:00.875Z,1288.00
2018-10-06T05:59:00.124Z,1348.00
2018-10-06T05:59:59.830Z,1412.00
2018-10-06T06:01:00.070Z,1472.00
2018-10-06T06:01:59.897Z,1536.00
2018-10-06T06:03:02.583Z,1592.00
2018-10-06T06:04:01.236Z,1652.00
2018-10-06T06:05:01.183Z,1712.00
2018-10-06T06:06:00.733Z,1772.00
2018-10-06T06:07:00.946Z,1828.00
2018-10-06T06:08:01.258Z,1892.00
2018-10-06T06:09:01.686Z,1952.00
2018-10-06T06:10:01.849Z,2008.00
2018-10-06T06:11:01.984Z,2068.00
2018-10-06T06:12:01.729Z,2120.00
2018-10-06T06:13:02.188Z,2180.00
2018-10-06T06:14:01.963Z,2248.00
2018-10-06T06:15:02.374Z,2324.00
2018-10-06T06:16:02.511Z,2404.00
2018-10-06T06:17:02.696Z,2488.00
2018-10-06T06:18:03.103Z,2580.00
2018-10-06T06:19:02.925Z,2632.00
2018-10-06T06:20:03.255Z,2668.00
2018-10-06T06:21:03.220Z,2696.00
2018-10-06T06:22:03.723Z,2716.00
2018-10-06T06:23:04.096Z,2768.00
2018-10-06T06:24:05.388Z,2824.00
2018-10-06T06:25:04.065Z,2848.00
2018-10-06T06:26:04.466Z,2900.00
2018-10-06T06:27:04.812Z,2968.00
2018-10-06T06:28:04.583Z,3004.00
2018-10-06T06:29:05.576Z,3084.00
2018-10-06T06:30:05.126Z,3168.00
2018-10-06T06:31:05.414Z,3264.00
2018-10-06T06:32:06.281Z,3372.00
2018-10-06T06:33:05.645Z,3412.00
2018-10-06T06:34:06.043Z,3432.00
2018-10-06T06:35:05.974Z,3508.00
2018-10-06T06:36:06.106Z,3568.00
2018-10-06T06:37:06.153Z,3604.00
2018-10-06T06:38:06.688Z,3668.00
2018-10-06T06:39:07.190Z,3744.00
2018-10-06T06:40:07.899Z,3788.00
2018-10-06T06:41:07.016Z,3824.00
2018-10-06T06:43:08.585Z,3964.00
2018-10-06T06:44:08.260Z,3964.00
2018-10-06T06:45:07.858Z,3920.00
2018-10-06T06:46:08.125Z,3956.00
2018-10-06T06:47:08.510Z,4072.00
2018-10-06T06:48:08.124Z,4096.00
2018-10-06T06:49:09.889Z,4172.00
2018-10-06T06:50:08.240Z,4392.00
2018-10-06T06:51:08.952Z,4368.00
2018-10-06T06:52:08.851Z,4492.00
2018-10-06T06:53:09.413Z,4508.00
2018-10-06T06:54:10.127Z,4632.00
2018-10-06T06:55:09.194Z,4776.00
2018-10-06T06:56:09.391Z,4868.00
2018-10-06T06:57:10.217Z,4876.00
2018-10-06T06:58:10.141Z,4912.00
2018-10-06T06:59:10.363Z,4952.00
2018-10-06T07:00:10.427Z,4988.00
2018-10-06T07:01:10.392Z,4996.00
2018-10-06T07:02:10.727Z,4712.00
2018-10-06T07:03:11.048Z,4620.00
2018-10-06T07:04:11.743Z,4720.00
2018-10-06T07:05:12.071Z,4592.00
2018-10-06T07:06:11.782Z,4616.00
2018-10-06T07:07:11.943Z,4772.00
2018-10-06T07:08:11.501Z,5192.00
2018-10-06T07:09:14.292Z,5244.00
2018-10-06T07:10:11.875Z,5168.00
2018-10-06T07:12:15.852Z,5336.00
2018-10-06T07:13:20.616Z,5452.00
2018-10-06T07:16:31.384Z,5120.00
2018-10-06T07:17:40.329Z,5628.00
2018-10-06T07:19:35.064Z,5888.00
2018-10-06T07:20:35.477Z,5984.00
2018-10-06T07:22:28.947Z,5800.00
2018-10-06T07:24:45.221Z,6264.00
2018-10-06T07:26:32.104Z,6452.00
2018-10-06T07:27:42.433Z,6836.00
2018-10-06T07:28:35.859Z,6800.00
2018-10-06T07:29:27.722Z,6780.00
2018-10-06T07:30:30.819Z,6960.00
2018-10-06T07:31:28.326Z,7212.00
2018-10-06T07:37:58.627Z,9212.00
2018-10-06T07:38:31.108Z,9628.00
2018-10-06T07:40:27.455Z,9784.00
2018-10-06T07:41:27.812Z,10056.00
2018-10-06T07:42:27.324Z,10568.00
2018-10-06T07:43:26.943Z,10960.00
2018-10-06T07:44:27.964Z,10464.00
2018-10-06T07:45:30.524Z,10416.00
2018-10-06T07:46:28.956Z,10944.00
2018-10-06T07:47:28.472Z,11236.00
2018-10-06T07:48:27.494Z,11600.00
2018-10-06T07:49:27.933Z,11548.00
2018-10-06T07:50:28.639Z,11500.00
2018-10-06T07:51:28.070Z,12644.00
2018-10-06T07:52:29.657Z,12496.00
2018-10-06T07:53:28.720Z,12368.00
2018-10-06T07:54:28.761Z,12128.00
2018-10-06T07:55:28.782Z,11440.00
2018-10-06T07:56:28.936Z,11656.00
2018-10-06T07:57:29.527Z,12140.00
2018-10-06T07:58:29.472Z,12008.00
2018-10-06T07:59:30.207Z,12896.00
2018-10-06T08:00:30.011Z,12764.00
2018-10-06T08:01:29.814Z,12940.00
2018-10-06T08:02:29.793Z,14364.00
2018-10-06T08:03:30.431Z,13784.00
2018-10-06T08:04:30.416Z,12640.00
2018-10-06T08:05:30.965Z,13404.00
2018-10-06T08:06:30.494Z,12904.00
2018-10-06T08:07:33.050Z,13900.00
2018-10-06T08:08:31.482Z,15392.00
2018-10-06T08:09:31.005Z,13384.00
2018-10-06T08:10:31.085Z,14528.00
2018-10-06T08:11:31.315Z,15808.00
2018-10-06T08:12:31.436Z,17280.00
2018-10-06T08:13:31.922Z,17824.00
2018-10-06T08:14:32.272Z,17728.00
2018-10-06T08:15:32.151Z,18112.00
2018-10-06T08:16:31.998Z,17472.00
2018-10-06T08:17:32.371Z,16832.00
2018-10-06T08:18:33.003Z,16960.00
2018-10-06T08:19:32.923Z,18944.00
2018-10-06T08:20:33.050Z,18528.00
2018-10-06T08:21:33.518Z,18944.00
2018-10-06T08:22:33.551Z,20032.00
2018-10-06T08:23:34.470Z,21696.00
2018-10-06T08:24:33.927Z,22592.00
2018-10-06T08:25:33.842Z,22560.00
2018-10-06T08:26:35.097Z,24416.00
2018-10-06T08:27:34.433Z,24576.00
2018-10-06T08:28:35.007Z,24864.00
2018-10-06T08:29:34.884Z,24416.00
2018-10-06T08:30:35.720Z,25696.00
2018-10-06T08:31:37.215Z,25728.00
2018-10-06T08:32:35.040Z,25792.00
2018-10-06T08:33:36.140Z,26720.00
2018-10-06T08:35:38.197Z,28640.00
2018-10-06T08:36:36.347Z,27808.00
2018-10-06T08:37:36.127Z,28224.00
2018-10-06T08:38:37.191Z,28480.00
2018-10-06T08:39:36.493Z,28480.00
2018-10-06T08:40:37.602Z,27648.00
2018-10-06T08:41:36.942Z,28416.00
2018-10-06T08:42:36.708Z,30112.00
2018-10-06T08:43:37.107Z,25760.00
2018-10-06T08:44:37.610Z,26336.00
2018-10-06T08:45:37.524Z,26496.00
2018-10-06T08:46:38.270Z,26240.00
2018-10-06T08:47:38.785Z,28160.00
2018-10-06T08:49:39.390Z,29504.00
2018-10-06T08:50:39.810Z,32864.00
2018-10-06T08:51:47.426Z,33376.00
2018-10-06T08:52:40.147Z,31008.00
2018-10-06T08:53:39.127Z,32800.00
2018-10-06T08:54:39.035Z,32896.00
2018-10-06T08:55:39.391Z,33248.00
2018-10-06T08:56:39.785Z,32032.00
2018-10-06T08:57:39.809Z,32512.00
2018-10-06T08:58:40.732Z,35264.00
2018-10-06T08:59:44.916Z,34848.00
2018-10-06T09:00:40.588Z,34432.00
2018-10-06T09:01:42.887Z,34592.00
2018-10-06T09:02:51.432Z,36384.00
2018-10-06T09:03:41.981Z,35616.00
2018-10-06T09:04:46.697Z,35008.00
2018-10-06T09:05:56.242Z,31264.00
2018-10-06T09:06:45.268Z,38144.00
2018-10-06T09:07:43.055Z,38752.00
2018-10-06T09:08:42.974Z,37696.00
2018-10-06T09:10:42.624Z,36288.00
2018-10-06T09:11:47.570Z,39488.00
2018-10-06T09:12:42.252Z,44672.00
2018-10-06T09:13:43.142Z,45312.00
2018-10-06T09:14:55.026Z,41792.00
2018-10-06T10:28:18.716Z,67328.00
2018-10-06T10:28:57.108Z,66304.00
2018-10-06T10:30:25.161Z,58784.00
2018-10-06T11:05:31.821Z,73184.00
2018-10-06T11:11:23.232Z,68416.00
2018-10-06T11:12:12.919Z,70464.00
2018-10-06T11:28:21.436Z,61120.00
2018-10-06T11:29:10.592Z,72864.00
2018-10-06T11:29:57.509Z,49120.00
2018-10-06T11:38:12.106Z,88864.00
2018-10-06T12:12:16.341Z,113376.00
2018-10-06T12:13:55.367Z,101216.00
2018-10-06T12:26:43.340Z,107456.00
2018-10-06T12:36:39.819Z,100512.00
2018-10-06T14:45:41.751Z,9352.00
2018-10-06T14:46:12.000Z,9168.00
2018-10-06T14:47:04.747Z,9088.00
2018-10-06T14:48:05.856Z,9020.00
2018-10-06T14:49:11.156Z,8876.00
2018-10-06T14:50:24.600Z,8724.00
2018-10-06T14:51:14.713Z,8624.00
2018-10-06T14:52:47.365Z,8576.00
2018-10-06T14:53:10.246Z,8628.00
2018-10-06T14:55:12.739Z,8936.00
2018-10-06T14:56:06.550Z,8976.00
2018-10-06T14:58:06.721Z,8472.00
2018-10-06T14:59:48.087Z,8352.00
2018-10-06T15:05:55.890Z,7432.00
2018-10-06T15:41:09.986Z,2764.00
2018-10-06T15:42:21.963Z,2680.00
2018-10-06T15:43:23.389Z,2612.00
2018-10-06T15:44:12.109Z,2524.00
2018-10-06T15:45:12.016Z,2448.00
2018-10-06T15:46:14.554Z,2376.00
2018-10-06T15:47:14.782Z,2332.00
2018-10-06T15:49:13.710Z,2300.00
2018-10-06T15:50:11.762Z,2292.00
2018-10-06T15:51:10.968Z,2284.00
2018-10-06T15:52:10.400Z,2260.00
2018-10-06T15:53:09.782Z,2240.00
2018-10-06T15:54:10.057Z,2216.00
2018-10-06T15:55:10.347Z,2176.00
2018-10-06T15:56:10.378Z,2128.00
2018-10-06T15:57:10.533Z,2080.00
2018-10-06T15:58:10.687Z,2028.00
2018-10-06T15:59:11.118Z,1976.00
2018-10-06T16:00:11.554Z,1920.00
2018-10-06T16:01:11.394Z,1876.00
2018-10-06T16:02:11.703Z,1828.00
2018-10-06T16:03:11.788Z,1776.00
2018-10-06T16:04:11.953Z,1708.00
2018-10-06T16:05:12.111Z,1644.00
2018-10-06T16:06:12.610Z,1564.00
2018-10-06T16:07:17.874Z,1488.00
2018-10-06T16:08:12.665Z,1412.00
2018-10-06T16:09:13.427Z,1344.00
2018-10-06T16:10:12.889Z,1284.00
2018-10-06T16:11:13.400Z,1224.00
2018-10-06T16:12:14.193Z,1156.00
2018-10-06T16:13:13.739Z,1092.00
2018-10-06T16:14:13.686Z,1024.00
2018-10-06T16:15:13.980Z,968.00
2018-10-06T16:16:14.346Z,908.00
2018-10-06T16:17:14.396Z,864.00
2018-10-06T16:18:14.633Z,820.00
2018-10-06T16:19:16.196Z,780.00
2018-10-06T16:20:40.127Z,740.00
2018-10-06T17:53:20.786Z,0.00
2018-10-06T17:54:17.278Z,0.00
2018-10-06T17:57:17.125Z,0.00
2018-10-06T17:58:13.943Z,0.00
2018-10-06T17:59:20.139Z,0.00
2018-10-06T18:00:13.245Z,0.00
2018-10-06T18:01:11.908Z,0.00
2018-10-06T18:13:30.080Z,0.00
2018-10-06T18:14:26.850Z,0.00
2018-10-06T18:15:27.456Z,0.00
2018-10-06T18:19:13.526Z,0.00
2018-10-06T18:38:50.324Z,0.00
2018-10-06T18:41:36.781Z,0.00
2018-10-06T18:42:35.879Z,0.00
2018-10-06T18:43:40.334Z,0.00
2018-10-06T19:35:09.787Z,0.00
2018-10-06T19:37:48.653Z,0.00
2018-10-06T19:42:13.041Z,0.00
2018-10-06T19:42:30.067Z,0.00
2018-10-06T19:47:20.123Z,0.00
2018-10-06T19:47:44.453Z,0.00
2018-10-06T19:54:06.201Z,0.00
2018-10-06T20:02:30.200Z,0.00
2018-10-06T21:02:58.295Z,0.00
2018-10-06T21:13:01.468Z,0.00
2018-10-06T21:16:33.639Z,0.00
2018-10-06T21:20:51.395Z,0.00
2018-10-06T21:22:39.676Z,0.00
2018-10-06T21:42:29.562Z,0.00
2018-10-06T21:46:29.810Z,0.00
2018-10-06T21:47:58.387Z,0.00
